Offenbach, Germany

4:09 AM CEST on May 23, 2015 (GMT +0200)
Wiesbaden Army Air Field | | Change Station
CLOSE
Current Station
Airport
Location: Wiesbaden,
Elevation: 459 ft
Nearby Weather Stations

Elev 459 ft 50.05 °N, 8.33 °E | Updated 11 minutes ago

Overcast
Overcast
58 °F
Feels Like 58 °F
N
5
Wind Variable Wind from North

Today
High -- | Low -- °F
--% Chance of Precip.
Yesterday
High -- | Low -- °F
Precip. -- in
5:29 AM 9:15 PM
Waxing Crescent, 26% visible
Pressure 30.14 in
Visibility 6.2 miles
Clouds Overcast 7500 ft
Dew Point 44 °F
Humidity 58%
Rainfall 0.00 in
Snow Depth Not available.
UV 0 out of 12
Pollen Not available.
Air Quality Not available.
Flu Activity Not available.
METAR ETOU 230158Z AUTO 01004KT 9999 OVC075 15/07 A3014 RMK AO2 SLP206 T01460065 $

More Conditions Fewer Conditions

Pressure 30.14 in
Visibility 6.2 miles
Clouds Overcast 7500 ft
Dew Point 44 °F
Humidity 58%
Rainfall 0.00 in
Snow Depth Not available.
UV 0 out of 12
Pollen Not available.
Air Quality Not available.
Flu Activity Not available.
METAR ETOU 230158Z AUTO 01004KT 9999 OVC075 15/07 A3014 RMK AO2 SLP206 T01460065 $

More Conditions Fewer Conditions

10-Day Weather Forecast

Almanac

Astronomy

May. 23, 2015 Rise Set
Actual Time
Civil Twilight
Nautical Twilight
Astronomical Twilight
Moon
Length of Visible Light
Length of Day
Tomorrow will be .
, % of the Moon is Illuminated

Today's Extremes

Country Highs Country Lows

Community

WunderPhotos

Upload Photos

1,823,363 photos uploaded!

WunderBlogs® & News

Nearby

Air Quality

  Air Quality AQ Index Pollutant
Not available.

Snow Depth

Station Depth Elevation

Earthquake Activity

City Distance Mag. Time & Date
Minimum magnitude displayed is 2.5.

Coastal Water Temperatures

Place Temperature

Stations

Nearby Weather Stations

Station Location Temp. Windchill Dew Point Humidity Wind Precip. Elev Updated Type